Řízení letového provozu České republiky
Letiste: LKTB Aktualizace: 30.05.2016 22:04:06  UTC
 METAR LKTB 30.05. 22:00 ...
METAR LKTB 302200Z 08003KT 340V120 CAVOK 16/13 Q1008 NOSIG=
 TAF LKTB 30.05. 17:00 ...
TAF LKTB 301700Z 3018/3124 15008KT CAVOK      TEMPO 3018/3020 9000 SHRA BKN045      TEMPO 3111/3119 SHRA SCT035TCU BKN040      PROB30 TEMPO 3112/3119 5000 TSRA SCT035CB=